CA-0684 weather

Brechin / Ronan Airfield
Brechin, Ontario, Canada

Public forecast

Using degrees Celsius for public forecast. Weather courtesy of forecast.io.

Closest aviation weather report (METAR) to Brechin / Ronan Airfield

Closest report is Muskoka Airport, 24.5 nm (45.3 km) N. Retrieved 2020/06/05 03:00 UTC (28 minutes ago):

CYQA 050300Z AUTO 00000KT 9SM CLR 13/10 A2981 RMK SLP098

Closest aviation forecast (TAF) to Brechin / Ronan Airfield

Forecast is more than 6 hours old.

Closest forecast is Muskoka Airport, 24.5 nm (45.3 km) N. Retrieved 2020/06/04 20:00 UTC (7 hours ago):

TAF CYQA 041941Z 0420/0502 26005KT P6SM SKC BECMG 0500/0502 VRB03KT RMK FCST BASED ON AUTO OBS NXT FCST WILL BE ISSUED AT 051145Z